sensor_id;sensor_type;location;lat;lon;timestamp;temperature;humidity
14741;DHT22;7462;53.530;9.414;2023-02-24T00:00:12;4.80;99.90
14741;DHT22;7462;53.530;9.414;2023-02-24T00:03:00;4.80;99.90
14741;DHT22;7462;53.530;9.414;2023-02-24T00:05:37;4.80;99.90
14741;DHT22;7462;53.530;9.414;2023-02-24T00:08:12;4.80;99.90
14741;DHT22;7462;53.530;9.414;2023-02-24T00:10:40;4.80;99.90
14741;DHT22;7462;53.530;9.414;2023-02-24T00:13:10;4.80;99.90
14741;DHT22;7462;53.530;9.414;2023-02-24T00:15:38;4.70;99.90
14741;DHT22;7462;53.530;9.414;2023-02-24T00:18:07;4.70;99.90
14741;DHT22;7462;53.530;9.414;2023-02-24T00:20:36;4.70;99.90
14741;DHT22;7462;53.530;9.414;2023-02-24T00:23:04;4.70;99.90
14741;DHT22;7462;53.530;9.414;2023-02-24T00:25:32;4.70;99.90
14741;DHT22;7462;53.530;9.414;2023-02-24T00:28:00;4.70;99.90
14741;DHT22;7462;53.530;9.414;2023-02-24T00:30:29;4.70;99.90
14741;DHT22;7462;53.530;9.414;2023-02-24T00:32:59;4.70;99.90
14741;DHT22;7462;53.530;9.414;2023-02-24T00:35:29;4.70;99.90
14741;DHT22;7462;53.530;9.414;2023-02-24T00:37:58;4.70;99.90
14741;DHT22;7462;53.530;9.414;2023-02-24T00:40:28;4.70;99.90
14741;DHT22;7462;53.530;9.414;2023-02-24T00:42:59;4.70;99.90
14741;DHT22;7462;53.530;9.414;2023-02-24T00:45:33;4.70;99.90
14741;DHT22;7462;53.530;9.414;2023-02-24T00:48:03;4.70;99.90
14741;DHT22;7462;53.530;9.414;2023-02-24T00:50:31;4.80;99.90
14741;DHT22;7462;53.530;9.414;2023-02-24T00:52:59;4.70;99.90
14741;DHT22;7462;53.530;9.414;2023-02-24T00:55:27;4.70;99.90
14741;DHT22;7462;53.530;9.414;2023-02-24T00:58:02;4.70;99.90
14741;DHT22;7462;53.530;9.414;2023-02-24T01:00:34;4.80;99.90
14741;DHT22;7462;53.530;9.414;2023-02-24T01:03:04;5.00;99.90
14741;DHT22;7462;53.530;9.414;2023-02-24T01:05:35;4.90;99.90
14741;DHT22;7462;53.530;9.414;2023-02-24T01:08:03;4.80;99.90
14741;DHT22;7462;53.530;9.414;2023-02-24T01:10:31;4.80;99.90
14741;DHT22;7462;53.530;9.414;2023-02-24T01:13:00;4.70;99.90
14741;DHT22;7462;53.530;9.414;2023-02-24T01:15:27;4.70;99.90
14741;DHT22;7462;53.530;9.414;2023-02-24T01:17:56;4.70;99.90
14741;DHT22;7462;53.530;9.414;2023-02-24T01:20:24;4.70;99.90
14741;DHT22;7462;53.530;9.414;2023-02-24T01:22:56;4.70;99.90
14741;DHT22;7462;53.530;9.414;2023-02-24T01:25:24;4.80;99.90
14741;DHT22;7462;53.530;9.414;2023-02-24T01:27:57;4.80;99.90
14741;DHT22;7462;53.530;9.414;2023-02-24T01:30:26;4.80;99.90
14741;DHT22;7462;53.530;9.414;2023-02-24T01:32:57;4.70;99.90
14741;DHT22;7462;53.530;9.414;2023-02-24T01:35:28;4.70;99.90
14741;DHT22;7462;53.530;9.414;2023-02-24T01:38:00;4.70;99.90
14741;DHT22;7462;53.530;9.414;2023-02-24T01:40:28;4.70;99.90
14741;DHT22;7462;53.530;9.414;2023-02-24T01:42:57;4.70;99.90
14741;DHT22;7462;53.530;9.414;2023-02-24T01:45:26;4.60;99.90
14741;DHT22;7462;53.530;9.414;2023-02-24T01:47:59;4.60;99.90
14741;DHT22;7462;53.530;9.414;2023-02-24T01:50:28;4.60;99.90
14741;DHT22;7462;53.530;9.414;2023-02-24T01:53:01;4.60;99.90
14741;DHT22;7462;53.530;9.414;2023-02-24T01:55:32;4.60;99.90
14741;DHT22;7462;53.530;9.414;2023-02-24T01:58:05;4.60;99.90
14741;DHT22;7462;53.530;9.414;2023-02-24T02:00:37;4.60;99.90
14741;DHT22;7462;53.530;9.414;2023-02-24T02:03:18;4.60;99.90
14741;DHT22;7462;53.530;9.414;2023-02-24T02:05:52;4.60;99.90
14741;DHT22;7462;53.530;9.414;2023-02-24T02:08:22;4.60;99.90
14741;DHT22;7462;53.530;9.414;2023-02-24T02:10:54;4.60;99.90
14741;DHT22;7462;53.530;9.414;2023-02-24T02:13:26;4.60;99.90
14741;DHT22;7462;53.530;9.414;2023-02-24T02:16:02;4.60;99.90
14741;DHT22;7462;53.530;9.414;2023-02-24T02:18:41;4.60;99.90
14741;DHT22;7462;53.530;9.414;2023-02-24T02:24:26;4.50;99.90
14741;DHT22;7462;53.530;9.414;2023-02-24T02:27:23;4.50;99.90
14741;DHT22;7462;53.530;9.414;2023-02-24T02:30:16;4.60;99.90
14741;DHT22;7462;53.530;9.414;2023-02-24T02:35:59;4.60;99.90
14741;DHT22;7462;53.530;9.414;2023-02-24T02:38:38;4.60;99.90
14741;DHT22;7462;53.530;9.414;2023-02-24T02:41:18;4.60;99.90
14741;DHT22;7462;53.530;9.414;2023-02-24T02:43:54;4.60;99.90
14741;DHT22;7462;53.530;9.414;2023-02-24T02:46:28;4.60;99.90
14741;DHT22;7462;53.530;9.414;2023-02-24T02:49:06;4.60;99.90
14741;DHT22;7462;53.530;9.414;2023-02-24T02:51:39;4.50;99.90
14741;DHT22;7462;53.530;9.414;2023-02-24T02:54:13;4.50;99.90
14741;DHT22;7462;53.530;9.414;2023-02-24T02:56:48;4.50;99.90
14741;DHT22;7462;53.530;9.414;2023-02-24T02:59:24;4.50;99.90
14741;DHT22;7462;53.530;9.414;2023-02-24T03:01:55;4.50;99.90
14741;DHT22;7462;53.530;9.414;2023-02-24T03:04:39;4.50;99.90
14741;DHT22;7462;53.530;9.414;2023-02-24T03:07:12;4.60;99.90
14741;DHT22;7462;53.530;9.414;2023-02-24T03:09:46;4.50;99.90
14741;DHT22;7462;53.530;9.414;2023-02-24T03:12:21;4.60;99.90
14741;DHT22;7462;53.530;9.414;2023-02-24T03:14:55;4.70;99.90
14741;DHT22;7462;53.530;9.414;2023-02-24T03:17:29;4.60;99.90
14741;DHT22;7462;53.530;9.414;2023-02-24T03:20:00;4.60;99.90
14741;DHT22;7462;53.530;9.414;2023-02-24T03:22:45;4.70;99.90
14741;DHT22;7462;53.530;9.414;2023-02-24T03:25:18;4.60;99.90
14741;DHT22;7462;53.530;9.414;2023-02-24T03:27:53;4.50;99.90
14741;DHT22;7462;53.530;9.414;2023-02-24T03:30:27;4.50;99.90
14741;DHT22;7462;53.530;9.414;2023-02-24T03:33:01;4.50;99.90
14741;DHT22;7462;53.530;9.414;2023-02-24T03:35:35;4.50;99.90
14741;DHT22;7462;53.530;9.414;2023-02-24T03:38:07;4.50;99.90
14741;DHT22;7462;53.530;9.414;2023-02-24T03:40:36;4.50;99.90
14741;DHT22;7462;53.530;9.414;2023-02-24T03:43:09;4.50;99.90
14741;DHT22;7462;53.530;9.414;2023-02-24T03:45:43;4.50;99.90
14741;DHT22;7462;53.530;9.414;2023-02-24T03:48:12;4.40;99.90
14741;DHT22;7462;53.530;9.414;2023-02-24T03:50:44;4.40;99.90
14741;DHT22;7462;53.530;9.414;2023-02-24T03:53:39;4.40;99.90
14741;DHT22;7462;53.530;9.414;2023-02-24T03:56:20;4.40;99.90
14741;DHT22;7462;53.530;9.414;2023-02-24T03:59:07;4.40;99.90
14741;DHT22;7462;53.530;9.414;2023-02-24T04:01:44;4.30;99.90
14741;DHT22;7462;53.530;9.414;2023-02-24T04:04:19;4.40;99.90
14741;DHT22;7462;53.530;9.414;2023-02-24T04:07:07;4.30;99.90
14741;DHT22;7462;53.530;9.414;2023-02-24T04:09:46;4.30;99.90
14741;DHT22;7462;53.530;9.414;2023-02-24T04:12:20;4.30;99.90
14741;DHT22;7462;53.530;9.414;2023-02-24T04:15:00;4.40;99.90
14741;DHT22;7462;53.530;9.414;2023-02-24T04:17:36;4.30;99.90
14741;DHT22;7462;53.530;9.414;2023-02-24T04:20:08;4.40;99.90
14741;DHT22;7462;53.530;9.414;2023-02-24T04:22:43;4.40;99.90
14741;DHT22;7462;53.530;9.414;2023-02-24T04:25:18;4.40;99.90
14741;DHT22;7462;53.530;9.414;2023-02-24T04:27:52;4.40;99.90
14741;DHT22;7462;53.530;9.414;2023-02-24T04:30:21;4.40;99.90
14741;DHT22;7462;53.530;9.414;2023-02-24T04:32:52;4.40;99.90
14741;DHT22;7462;53.530;9.414;2023-02-24T04:35:24;4.40;99.90
14741;DHT22;7462;53.530;9.414;2023-02-24T04:37:55;4.40;99.90
14741;DHT22;7462;53.530;9.414;2023-02-24T04:40:26;4.30;99.90
14741;DHT22;7462;53.530;9.414;2023-02-24T04:42:54;4.30;99.90
14741;DHT22;7462;53.530;9.414;2023-02-24T04:45:24;4.30;99.90
14741;DHT22;7462;53.530;9.414;2023-02-24T04:47:55;4.30;99.90
14741;DHT22;7462;53.530;9.414;2023-02-24T04:50:28;4.40;99.90
14741;DHT22;7462;53.530;9.414;2023-02-24T04:52:58;4.40;99.90
14741;DHT22;7462;53.530;9.414;2023-02-24T04:55:30;4.40;99.90
14741;DHT22;7462;53.530;9.414;2023-02-24T04:58:00;4.40;99.90
14741;DHT22;7462;53.530;9.414;2023-02-24T05:00:28;4.40;99.90
14741;DHT22;7462;53.530;9.414;2023-02-24T05:03:02;4.40;99.90
14741;DHT22;7462;53.530;9.414;2023-02-24T05:05:31;4.40;99.90
14741;DHT22;7462;53.530;9.414;2023-02-24T05:08:01;4.40;99.90
14741;DHT22;7462;53.530;9.414;2023-02-24T05:10:37;4.40;99.90
14741;DHT22;7462;53.530;9.414;2023-02-24T05:13:06;4.40;99.90
14741;DHT22;7462;53.530;9.414;2023-02-24T05:15:39;4.40;99.90
14741;DHT22;7462;53.530;9.414;2023-02-24T05:18:09;4.40;99.90
14741;DHT22;7462;53.530;9.414;2023-02-24T05:20:41;4.40;99.90
14741;DHT22;7462;53.530;9.414;2023-02-24T05:23:29;4.40;99.90
14741;DHT22;7462;53.530;9.414;2023-02-24T05:26:02;4.40;99.90
14741;DHT22;7462;53.530;9.414;2023-02-24T05:28:34;4.40;99.90
14741;DHT22;7462;53.530;9.414;2023-02-24T05:31:05;4.40;99.90
14741;DHT22;7462;53.530;9.414;2023-02-24T05:33:35;4.40;99.90
14741;DHT22;7462;53.530;9.414;2023-02-24T05:36:06;4.40;99.90
14741;DHT22;7462;53.530;9.414;2023-02-24T05:38:35;4.40;99.90
14741;DHT22;7462;53.530;9.414;2023-02-24T05:41:07;4.40;99.90
14741;DHT22;7462;53.530;9.414;2023-02-24T05:43:40;4.40;99.90
14741;DHT22;7462;53.530;9.414;2023-02-24T05:46:14;4.30;99.90
14741;DHT22;7462;53.530;9.414;2023-02-24T05:48:42;4.30;99.90
14741;DHT22;7462;53.530;9.414;2023-02-24T05:51:10;4.20;99.90
14741;DHT22;7462;53.530;9.414;2023-02-24T05:53:39;4.30;99.90
14741;DHT22;7462;53.530;9.414;2023-02-24T05:56:09;4.20;99.90
14741;DHT22;7462;53.530;9.414;2023-02-24T05:58:38;4.10;99.90
14741;DHT22;7462;53.530;9.414;2023-02-24T06:01:10;4.10;99.90
14741;DHT22;7462;53.530;9.414;2023-02-24T06:03:43;4.10;99.90
14741;DHT22;7462;53.530;9.414;2023-02-24T06:06:14;4.10;99.90
14741;DHT22;7462;53.530;9.414;2023-02-24T06:08:44;4.10;99.90
14741;DHT22;7462;53.530;9.414;2023-02-24T06:11:19;4.00;99.90
14741;DHT22;7462;53.530;9.414;2023-02-24T06:13:48;3.90;99.90
14741;DHT22;7462;53.530;9.414;2023-02-24T06:16:18;3.90;99.90
14741;DHT22;7462;53.530;9.414;2023-02-24T06:18:47;3.90;99.90
14741;DHT22;7462;53.530;9.414;2023-02-24T06:21:16;3.90;99.90
14741;DHT22;7462;53.530;9.414;2023-02-24T06:23:45;4.00;99.90
14741;DHT22;7462;53.530;9.414;2023-02-24T06:26:13;3.90;99.90
14741;DHT22;7462;53.530;9.414;2023-02-24T06:28:47;4.00;99.90
14741;DHT22;7462;53.530;9.414;2023-02-24T06:31:19;4.00;99.90
14741;DHT22;7462;53.530;9.414;2023-02-24T06:33:49;3.90;99.90
14741;DHT22;7462;53.530;9.414;2023-02-24T06:36:19;3.90;99.90
14741;DHT22;7462;53.530;9.414;2023-02-24T06:38:48;3.90;99.90
14741;DHT22;7462;53.530;9.414;2023-02-24T06:41:18;3.90;99.90
14741;DHT22;7462;53.530;9.414;2023-02-24T06:43:50;3.90;99.90
14741;DHT22;7462;53.530;9.414;2023-02-24T06:46:19;3.90;99.90
14741;DHT22;7462;53.530;9.414;2023-02-24T06:48:48;3.80;99.90
14741;DHT22;7462;53.530;9.414;2023-02-24T06:51:18;3.80;99.90
14741;DHT22;7462;53.530;9.414;2023-02-24T06:53:47;3.90;99.90
14741;DHT22;7462;53.530;9.414;2023-02-24T06:56:17;3.90;99.90
14741;DHT22;7462;53.530;9.414;2023-02-24T06:58:49;3.90;99.90
14741;DHT22;7462;53.530;9.414;2023-02-24T07:01:20;3.90;99.90
14741;DHT22;7462;53.530;9.414;2023-02-24T07:03:53;3.90;99.90
14741;DHT22;7462;53.530;9.414;2023-02-24T07:06:46;3.90;99.90
14741;DHT22;7462;53.530;9.414;2023-02-24T07:09:20;3.80;99.90
14741;DHT22;7462;53.530;9.414;2023-02-24T07:11:51;3.80;99.90
14741;DHT22;7462;53.530;9.414;2023-02-24T07:14:25;3.80;99.90
14741;DHT22;7462;53.530;9.414;2023-02-24T07:16:54;3.80;99.90
14741;DHT22;7462;53.530;9.414;2023-02-24T07:19:26;3.80;99.90
14741;DHT22;7462;53.530;9.414;2023-02-24T07:21:56;3.80;99.90
14741;DHT22;7462;53.530;9.414;2023-02-24T07:24:29;3.80;99.90
14741;DHT22;7462;53.530;9.414;2023-02-24T07:27:04;3.90;99.90
14741;DHT22;7462;53.530;9.414;2023-02-24T07:29:35;3.90;99.90
14741;DHT22;7462;53.530;9.414;2023-02-24T07:32:05;3.80;99.90
14741;DHT22;7462;53.530;9.414;2023-02-24T07:34:34;3.80;99.90
14741;DHT22;7462;53.530;9.414;2023-02-24T07:37:06;3.80;99.90
14741;DHT22;7462;53.530;9.414;2023-02-24T07:39:34;3.80;99.90
14741;DHT22;7462;53.530;9.414;2023-02-24T07:42:04;3.80;99.90
14741;DHT22;7462;53.530;9.414;2023-02-24T07:44:43;3.80;99.90
14741;DHT22;7462;53.530;9.414;2023-02-24T07:47:12;3.70;99.90
14741;DHT22;7462;53.530;9.414;2023-02-24T07:49:41;3.80;99.90
14741;DHT22;7462;53.530;9.414;2023-02-24T07:52:11;3.70;99.90
14741;DHT22;7462;53.530;9.414;2023-02-24T07:54:39;3.80;99.90
14741;DHT22;7462;53.530;9.414;2023-02-24T07:57:07;3.80;99.90
14741;DHT22;7462;53.530;9.414;2023-02-24T07:59:40;3.70;99.90
14741;DHT22;7462;53.530;9.414;2023-02-24T08:02:12;3.70;99.90
14741;DHT22;7462;53.530;9.414;2023-02-24T08:04:40;3.70;99.90
14741;DHT22;7462;53.530;9.414;2023-02-24T08:07:13;3.70;99.90
14741;DHT22;7462;53.530;9.414;2023-02-24T08:09:42;3.70;99.90
14741;DHT22;7462;53.530;9.414;2023-02-24T08:12:27;3.70;99.90
14741;DHT22;7462;53.530;9.414;2023-02-24T08:14:56;3.70;99.90
14741;DHT22;7462;53.530;9.414;2023-02-24T08:17:27;3.70;99.90
14741;DHT22;7462;53.530;9.414;2023-02-24T08:19:55;3.70;99.90
14741;DHT22;7462;53.530;9.414;2023-02-24T08:22:49;3.70;99.90
14741;DHT22;7462;53.530;9.414;2023-02-24T08:25:20;3.70;99.90
14741;DHT22;7462;53.530;9.414;2023-02-24T08:27:50;3.70;99.90
14741;DHT22;7462;53.530;9.414;2023-02-24T08:30:37;3.70;99.90
14741;DHT22;7462;53.530;9.414;2023-02-24T08:33:09;3.70;99.90
14741;DHT22;7462;53.530;9.414;2023-02-24T08:35:38;3.70;99.90
14741;DHT22;7462;53.530;9.414;2023-02-24T08:38:12;3.70;99.90
14741;DHT22;7462;53.530;9.414;2023-02-24T08:40:44;3.80;99.90
14741;DHT22;7462;53.530;9.414;2023-02-24T08:43:21;3.80;99.90
14741;DHT22;7462;53.530;9.414;2023-02-24T08:46:01;3.80;99.90
14741;DHT22;7462;53.530;9.414;2023-02-24T08:48:33;3.70;99.90
14741;DHT22;7462;53.530;9.414;2023-02-24T08:51:08;3.80;99.90
14741;DHT22;7462;53.530;9.414;2023-02-24T08:53:37;3.80;99.90
14741;DHT22;7462;53.530;9.414;2023-02-24T08:56:10;3.80;99.90
14741;DHT22;7462;53.530;9.414;2023-02-24T08:58:40;3.80;99.90
14741;DHT22;7462;53.530;9.414;2023-02-24T09:01:16;3.80;99.90
14741;DHT22;7462;53.530;9.414;2023-02-24T09:03:53;3.80;99.90
14741;DHT22;7462;53.530;9.414;2023-02-24T09:06:32;3.80;99.90
14741;DHT22;7462;53.530;9.414;2023-02-24T09:09:01;3.80;99.90
14741;DHT22;7462;53.530;9.414;2023-02-24T09:11:51;3.80;99.90
14741;DHT22;7462;53.530;9.414;2023-02-24T09:14:24;3.90;99.90
14741;DHT22;7462;53.530;9.414;2023-02-24T09:16:56;3.90;99.90
14741;DHT22;7462;53.530;9.414;2023-02-24T09:19:37;3.90;99.90
14741;DHT22;7462;53.530;9.414;2023-02-24T09:22:31;4.00;99.90
14741;DHT22;7462;53.530;9.414;2023-02-24T09:25:08;4.00;99.90
14741;DHT22;7462;53.530;9.414;2023-02-24T09:27:49;3.90;99.90
14741;DHT22;7462;53.530;9.414;2023-02-24T09:30:25;3.90;99.90
14741;DHT22;7462;53.530;9.414;2023-02-24T09:33:13;3.80;99.90
14741;DHT22;7462;53.530;9.414;2023-02-24T09:35:48;3.90;99.90
14741;DHT22;7462;53.530;9.414;2023-02-24T09:38:18;3.90;99.90
14741;DHT22;7462;53.530;9.414;2023-02-24T09:40:50;4.00;99.90
14741;DHT22;7462;53.530;9.414;2023-02-24T09:43:20;3.90;99.90
14741;DHT22;7462;53.530;9.414;2023-02-24T09:45:56;4.00;99.90
14741;DHT22;7462;53.530;9.414;2023-02-24T09:48:36;4.10;99.90
14741;DHT22;7462;53.530;9.414;2023-02-24T09:51:14;4.10;99.90
14741;DHT22;7462;53.530;9.414;2023-02-24T09:53:51;4.00;99.90
14741;DHT22;7462;53.530;9.414;2023-02-24T09:56:27;4.10;99.90
14741;DHT22;7462;53.530;9.414;2023-02-24T09:59:00;4.10;99.90
14741;DHT22;7462;53.530;9.414;2023-02-24T10:01:42;4.20;99.90
14741;DHT22;7462;53.530;9.414;2023-02-24T10:04:20;4.20;99.90
14741;DHT22;7462;53.530;9.414;2023-02-24T10:06:58;4.10;99.90
14741;DHT22;7462;53.530;9.414;2023-02-24T10:09:33;4.20;99.90
14741;DHT22;7462;53.530;9.414;2023-02-24T10:12:12;4.10;99.90
14741;DHT22;7462;53.530;9.414;2023-02-24T10:14:47;4.20;99.90
14741;DHT22;7462;53.530;9.414;2023-02-24T10:17:21;4.20;99.90
14741;DHT22;7462;53.530;9.414;2023-02-24T10:19:59;4.20;99.90
14741;DHT22;7462;53.530;9.414;2023-02-24T10:22:39;4.20;99.90
14741;DHT22;7462;53.530;9.414;2023-02-24T10:25:21;4.20;99.90
14741;DHT22;7462;53.530;9.414;2023-02-24T10:28:00;4.20;99.90
14741;DHT22;7462;53.530;9.414;2023-02-24T10:30:37;4.30;99.90
14741;DHT22;7462;53.530;9.414;2023-02-24T10:33:31;4.20;99.90
14741;DHT22;7462;53.530;9.414;2023-02-24T10:36:09;4.30;99.90
14741;DHT22;7462;53.530;9.414;2023-02-24T10:38:39;4.40;99.90
14741;DHT22;7462;53.530;9.414;2023-02-24T10:41:14;4.50;99.90
14741;DHT22;7462;53.530;9.414;2023-02-24T10:43:53;4.50;99.90
14741;DHT22;7462;53.530;9.414;2023-02-24T10:46:26;4.50;99.90
14741;DHT22;7462;53.530;9.414;2023-02-24T10:49:09;4.50;99.90
14741;DHT22;7462;53.530;9.414;2023-02-24T10:51:47;4.50;99.90
14741;DHT22;7462;53.530;9.414;2023-02-24T10:54:23;4.50;99.90
14741;DHT22;7462;53.530;9.414;2023-02-24T10:57:12;4.50;99.90
14741;DHT22;7462;53.530;9.414;2023-02-24T10:59:56;4.50;99.90
14741;DHT22;7462;53.530;9.414;2023-02-24T11:02:47;4.60;99.90
14741;DHT22;7462;53.530;9.414;2023-02-24T11:05:40;4.70;99.90
14741;DHT22;7462;53.530;9.414;2023-02-24T11:08:33;4.70;99.90
14741;DHT22;7462;53.530;9.414;2023-02-24T11:11:23;4.70;99.90
14741;DHT22;7462;53.530;9.414;2023-02-24T11:13:57;4.70;99.90
14741;DHT22;7462;53.530;9.414;2023-02-24T11:16:44;4.70;99.90
14741;DHT22;7462;53.530;9.414;2023-02-24T11:19:33;4.70;99.90
14741;DHT22;7462;53.530;9.414;2023-02-24T11:22:03;4.70;99.90
14741;DHT22;7462;53.530;9.414;2023-02-24T11:24:35;4.70;99.90
14741;DHT22;7462;53.530;9.414;2023-02-24T11:27:06;4.70;99.90
14741;DHT22;7462;53.530;9.414;2023-02-24T11:30:08;4.80;99.90
14741;DHT22;7462;53.530;9.414;2023-02-24T11:33:00;4.80;99.90
14741;DHT22;7462;53.530;9.414;2023-02-24T11:35:34;4.80;99.90
14741;DHT22;7462;53.530;9.414;2023-02-24T11:38:14;4.90;99.90
14741;DHT22;7462;53.530;9.414;2023-02-24T11:41:00;5.00;99.90
14741;DHT22;7462;53.530;9.414;2023-02-24T11:43:33;5.20;99.90
14741;DHT22;7462;53.530;9.414;2023-02-24T11:46:08;5.20;99.90
14741;DHT22;7462;53.530;9.414;2023-02-24T11:48:40;5.20;99.90
14741;DHT22;7462;53.530;9.414;2023-02-24T11:51:13;5.40;99.90
14741;DHT22;7462;53.530;9.414;2023-02-24T11:53:47;5.40;99.90
14741;DHT22;7462;53.530;9.414;2023-02-24T11:56:21;5.50;99.90
14741;DHT22;7462;53.530;9.414;2023-02-24T11:58:56;5.70;99.90
14741;DHT22;7462;53.530;9.414;2023-02-24T12:01:29;5.70;99.90
14741;DHT22;7462;53.530;9.414;2023-02-24T12:04:05;5.90;99.90
14741;DHT22;7462;53.530;9.414;2023-02-24T12:06:41;6.00;99.90
14741;DHT22;7462;53.530;9.414;2023-02-24T12:09:14;5.90;99.90
14741;DHT22;7462;53.530;9.414;2023-02-24T12:11:50;5.90;99.90
14741;DHT22;7462;53.530;9.414;2023-02-24T12:14:31;5.80;99.90
14741;DHT22;7462;53.530;9.414;2023-02-24T12:17:07;5.80;99.90
14741;DHT22;7462;53.530;9.414;2023-02-24T12:19:54;5.90;99.90
14741;DHT22;7462;53.530;9.414;2023-02-24T12:22:29;6.00;99.90
14741;DHT22;7462;53.530;9.414;2023-02-24T12:25:00;6.00;99.90
14741;DHT22;7462;53.530;9.414;2023-02-24T12:27:39;6.10;99.90
14741;DHT22;7462;53.530;9.414;2023-02-24T12:30:24;6.20;99.90
14741;DHT22;7462;53.530;9.414;2023-02-24T12:33:11;6.20;99.90
14741;DHT22;7462;53.530;9.414;2023-02-24T12:35:46;6.30;99.90
14741;DHT22;7462;53.530;9.414;2023-02-24T12:38:31;6.60;99.90
14741;DHT22;7462;53.530;9.414;2023-02-24T12:41:14;6.70;99.90
14741;DHT22;7462;53.530;9.414;2023-02-24T12:43:48;6.90;99.90
14741;DHT22;7462;53.530;9.414;2023-02-24T12:46:24;7.00;99.90
14741;DHT22;7462;53.530;9.414;2023-02-24T12:49:20;7.10;99.90
14741;DHT22;7462;53.530;9.414;2023-02-24T12:52:03;7.10;99.90
14741;DHT22;7462;53.530;9.414;2023-02-24T12:54:40;7.00;99.90
14741;DHT22;7462;53.530;9.414;2023-02-24T12:57:15;7.00;99.90
14741;DHT22;7462;53.530;9.414;2023-02-24T12:59:46;7.10;99.90
14741;DHT22;7462;53.530;9.414;2023-02-24T13:02:22;7.10;99.90
14741;DHT22;7462;53.530;9.414;2023-02-24T13:05:00;7.10;99.90
14741;DHT22;7462;53.530;9.414;2023-02-24T13:07:39;7.00;99.90
14741;DHT22;7462;53.530;9.414;2023-02-24T13:10:19;6.80;99.90
14741;DHT22;7462;53.530;9.414;2023-02-24T13:12:54;6.80;99.90
14741;DHT22;7462;53.530;9.414;2023-02-24T13:15:29;6.70;99.90
14741;DHT22;7462;53.530;9.414;2023-02-24T13:17:59;6.60;99.90
14741;DHT22;7462;53.530;9.414;2023-02-24T13:20:29;6.60;99.90
14741;DHT22;7462;53.530;9.414;2023-02-24T13:23:00;6.60;99.90
14741;DHT22;7462;53.530;9.414;2023-02-24T13:25:32;6.70;99.90
14741;DHT22;7462;53.530;9.414;2023-02-24T13:28:05;6.70;99.90
14741;DHT22;7462;53.530;9.414;2023-02-24T13:30:37;6.90;99.90
14741;DHT22;7462;53.530;9.414;2023-02-24T13:33:21;6.90;99.90
14741;DHT22;7462;53.530;9.414;2023-02-24T13:35:52;6.90;99.90
14741;DHT22;7462;53.530;9.414;2023-02-24T13:38:37;6.90;99.90
14741;DHT22;7462;53.530;9.414;2023-02-24T13:41:08;6.70;99.90
14741;DHT22;7462;53.530;9.414;2023-02-24T13:43:53;6.60;99.90
14741;DHT22;7462;53.530;9.414;2023-02-24T13:46:21;6.50;99.90
14741;DHT22;7462;53.530;9.414;2023-02-24T13:48:59;6.50;99.90
14741;DHT22;7462;53.530;9.414;2023-02-24T13:51:48;6.50;99.90
14741;DHT22;7462;53.530;9.414;2023-02-24T13:57:30;6.30;99.90
14741;DHT22;7462;53.530;9.414;2023-02-24T14:00:07;6.30;99.90
14741;DHT22;7462;53.530;9.414;2023-02-24T14:02:42;6.40;99.90
14741;DHT22;7462;53.530;9.414;2023-02-24T14:05:18;6.60;99.90
14741;DHT22;7462;53.530;9.414;2023-02-24T14:07:50;6.50;99.90
14741;DHT22;7462;53.530;9.414;2023-02-24T14:10:23;6.40;99.90
14741;DHT22;7462;53.530;9.414;2023-02-24T14:13:01;6.40;99.90
14741;DHT22;7462;53.530;9.414;2023-02-24T14:15:34;6.40;99.90
14741;DHT22;7462;53.530;9.414;2023-02-24T14:18:05;6.30;99.90
14741;DHT22;7462;53.530;9.414;2023-02-24T14:20:34;6.30;99.90
14741;DHT22;7462;53.530;9.414;2023-02-24T14:23:20;6.30;99.90
14741;DHT22;7462;53.530;9.414;2023-02-24T14:25:54;6.40;99.90
14741;DHT22;7462;53.530;9.414;2023-02-24T14:28:26;6.50;99.90
14741;DHT22;7462;53.530;9.414;2023-02-24T14:30:58;6.60;99.90
14741;DHT22;7462;53.530;9.414;2023-02-24T14:33:30;6.60;99.90
14741;DHT22;7462;53.530;9.414;2023-02-24T14:36:03;6.60;99.90
14741;DHT22;7462;53.530;9.414;2023-02-24T14:38:34;6.60;99.90
14741;DHT22;7462;53.530;9.414;2023-02-24T14:41:04;6.70;99.90
14741;DHT22;7462;53.530;9.414;2023-02-24T14:43:40;6.70;99.90
14741;DHT22;7462;53.530;9.414;2023-02-24T14:46:09;6.70;99.90
14741;DHT22;7462;53.530;9.414;2023-02-24T14:48:38;6.70;99.90
14741;DHT22;7462;53.530;9.414;2023-02-24T14:51:10;6.60;99.90
14741;DHT22;7462;53.530;9.414;2023-02-24T14:53:49;6.70;99.90
14741;DHT22;7462;53.530;9.414;2023-02-24T14:56:27;6.60;99.90
14741;DHT22;7462;53.530;9.414;2023-02-24T14:59:00;6.60;99.90
14741;DHT22;7462;53.530;9.414;2023-02-24T15:01:31;6.50;99.90
14741;DHT22;7462;53.530;9.414;2023-02-24T15:04:10;6.40;99.90
14741;DHT22;7462;53.530;9.414;2023-02-24T15:06:41;6.40;99.90
14741;DHT22;7462;53.530;9.414;2023-02-24T15:09:14;6.40;99.90
14741;DHT22;7462;53.530;9.414;2023-02-24T15:11:46;6.40;99.90
14741;DHT22;7462;53.530;9.414;2023-02-24T15:14:21;6.30;99.90
14741;DHT22;7462;53.530;9.414;2023-02-24T15:16:52;6.30;99.90
14741;DHT22;7462;53.530;9.414;2023-02-24T15:19:25;6.20;99.90
14741;DHT22;7462;53.530;9.414;2023-02-24T15:21:55;6.20;99.90
14741;DHT22;7462;53.530;9.414;2023-02-24T15:24:26;6.20;99.90
14741;DHT22;7462;53.530;9.414;2023-02-24T15:26:56;6.10;99.90
14741;DHT22;7462;53.530;9.414;2023-02-24T15:29:26;6.10;99.90
14741;DHT22;7462;53.530;9.414;2023-02-24T15:31:55;6.10;99.90
14741;DHT22;7462;53.530;9.414;2023-02-24T15:34:27;6.00;99.90
14741;DHT22;7462;53.530;9.414;2023-02-24T15:37:00;6.00;99.90
14741;DHT22;7462;53.530;9.414;2023-02-24T15:39:31;6.00;99.90
14741;DHT22;7462;53.530;9.414;2023-02-24T15:42:07;6.10;99.90
14741;DHT22;7462;53.530;9.414;2023-02-24T15:44:35;6.10;99.90
14741;DHT22;7462;53.530;9.414;2023-02-24T15:47:20;6.10;99.90
14741;DHT22;7462;53.530;9.414;2023-02-24T15:49:48;6.20;99.90
14741;DHT22;7462;53.530;9.414;2023-02-24T15:52:22;6.10;99.90
14741;DHT22;7462;53.530;9.414;2023-02-24T15:54:51;6.10;99.90
14741;DHT22;7462;53.530;9.414;2023-02-24T15:57:19;6.10;99.90
14741;DHT22;7462;53.530;9.414;2023-02-24T15:59:48;6.10;99.90
14741;DHT22;7462;53.530;9.414;2023-02-24T16:02:17;6.10;99.90
14741;DHT22;7462;53.530;9.414;2023-02-24T16:04:46;6.10;99.90
14741;DHT22;7462;53.530;9.414;2023-02-24T16:07:18;6.10;99.90
14741;DHT22;7462;53.530;9.414;2023-02-24T16:09:48;6.10;99.90
14741;DHT22;7462;53.530;9.414;2023-02-24T16:12:21;6.10;99.90
14741;DHT22;7462;53.530;9.414;2023-02-24T16:14:50;6.10;99.90
14741;DHT22;7462;53.530;9.414;2023-02-24T16:17:27;6.00;99.90
14741;DHT22;7462;53.530;9.414;2023-02-24T16:19:57;6.00;99.90
14741;DHT22;7462;53.530;9.414;2023-02-24T16:22:28;6.00;99.90
14741;DHT22;7462;53.530;9.414;2023-02-24T16:24:56;6.00;99.90
14741;DHT22;7462;53.530;9.414;2023-02-24T16:27:24;5.90;99.90
14741;DHT22;7462;53.530;9.414;2023-02-24T16:29:55;5.80;99.90
14741;DHT22;7462;53.530;9.414;2023-02-24T16:32:23;5.70;99.90
14741;DHT22;7462;53.530;9.414;2023-02-24T16:34:54;5.70;99.90
14741;DHT22;7462;53.530;9.414;2023-02-24T16:37:25;5.60;99.90
14741;DHT22;7462;53.530;9.414;2023-02-24T16:39:55;5.60;99.90
14741;DHT22;7462;53.530;9.414;2023-02-24T16:42:25;5.70;99.90
14741;DHT22;7462;53.530;9.414;2023-02-24T16:44:53;5.60;99.90
14741;DHT22;7462;53.530;9.414;2023-02-24T16:47:22;5.60;99.90
14741;DHT22;7462;53.530;9.414;2023-02-24T16:49:51;5.60;99.90
14741;DHT22;7462;53.530;9.414;2023-02-24T16:52:21;5.60;99.90
14741;DHT22;7462;53.530;9.414;2023-02-24T16:54:50;5.50;99.90